ポンタ・デルガダ の空港の天気 - METARとTAF

ポンタ・デルガダ空港 ( LPPD / PDL ) - ポルトガル ポンタ・デルガダ (サンミゲル島)
飛行場実況気象(Metar)
観測時間08/25 19:00 AZOST (08/25 19:00 UTC)
風向・風速北北東 5m/s
視程10km以上
天気現象
少しの雲 雲底高度 210m
全天の4割程度の雲 雲底高度 460m
気温21℃
湿度88%
気圧1023hPa
METARLPPD 251900Z 03010KT 360V060 9999 FEW007 SCT015 21/19 Q1023
過去の天気等 Google飛行場航空写真 Wunderground天気予報

過去48時間のMETAR

飛行場予報(TAF)
発表時間: 8/25 17:00 AZOST (8/25 17:00 UTC)
予報対象時間: 25日18時 AZOST ~ 26日18時 AZOST
風向・風速北北東 5m/s
視程10km以上
全天の4割程度の雲 雲底高度 370m
全天の8割程度の雲 雲底高度 1070m
25日18時 AZOST ~ 25日24時 AZOST に一時的に
視程3000m
天気現象霧雨雨 もや
全天の4割程度の雲 雲底高度 150m
全天の8割程度の雲 雲底高度 300m
26日6時 AZOST ~ 26日9時 AZOST に徐々に
風向・風速不定 3m/s
全天の4割程度の雲 雲底高度 460m
全天の4割程度の雲 雲底高度 1070m
TAF LPPD 251700Z 2518/2618 03009KT 9999 SCT012 BKN035
TEMPO 2518/2524 3000 DZRA BR SCT005 BKN010
BECMG 2606/2609 VRB05KT SCT015 SCT035